sensor_id;sensor_type;location;lat;lon;timestamp;P1;durP1;ratioP1;P2;durP2;ratioP2
46439;SDS011;32138;50.966;6.968;2023-07-16T00:01:19;4.20;;;1.80;;
46439;SDS011;32138;50.966;6.968;2023-07-16T00:02:50;2.72;;;1.60;;
46439;SDS011;32138;50.966;6.968;2023-07-16T00:04:20;3.13;;;1.65;;
46439;SDS011;32138;50.966;6.968;2023-07-16T00:05:51;3.10;;;1.58;;
46439;SDS011;32138;50.966;6.968;2023-07-16T00:07:22;4.32;;;1.63;;
46439;SDS011;32138;50.966;6.968;2023-07-16T00:08:55;4.75;;;1.75;;
46439;SDS011;32138;50.966;6.968;2023-07-16T00:10:26;6.22;;;2.20;;
46439;SDS011;32138;50.966;6.968;2023-07-16T00:11:56;2.78;;;1.80;;
46439;SDS011;32138;50.966;6.968;2023-07-16T00:13:27;5.38;;;1.83;;
46439;SDS011;32138;50.966;6.968;2023-07-16T00:14:58;4.90;;;1.77;;
46439;SDS011;32138;50.966;6.968;2023-07-16T00:16:29;5.15;;;1.83;;
46439;SDS011;32138;50.966;6.968;2023-07-16T00:18:00;3.08;;;1.90;;
46439;SDS011;32138;50.966;6.968;2023-07-16T00:19:30;5.35;;;1.90;;
46439;SDS011;32138;50.966;6.968;2023-07-16T00:21:01;5.30;;;1.70;;
46439;SDS011;32138;50.966;6.968;2023-07-16T00:22:32;5.50;;;1.90;;
46439;SDS011;32138;50.966;6.968;2023-07-16T00:24:03;5.63;;;2.35;;
46439;SDS011;32138;50.966;6.968;2023-07-16T00:25:34;4.18;;;1.90;;
46439;SDS011;32138;50.966;6.968;2023-07-16T00:27:05;6.90;;;2.10;;
46439;SDS011;32138;50.966;6.968;2023-07-16T00:28:36;5.03;;;1.95;;
46439;SDS011;32138;50.966;6.968;2023-07-16T00:30:07;3.30;;;1.73;;
46439;SDS011;32138;50.966;6.968;2023-07-16T00:31:38;7.07;;;2.15;;
46439;SDS011;32138;50.966;6.968;2023-07-16T00:33:09;6.35;;;2.22;;
46439;SDS011;32138;50.966;6.968;2023-07-16T00:34:40;6.40;;;2.38;;
46439;SDS011;32138;50.966;6.968;2023-07-16T00:36:11;3.15;;;2.15;;
46439;SDS011;32138;50.966;6.968;2023-07-16T00:37:42;6.32;;;2.88;;
46439;SDS011;32138;50.966;6.968;2023-07-16T00:39:12;3.45;;;1.60;;
46439;SDS011;32138;50.966;6.968;2023-07-16T00:40:44;6.07;;;2.05;;
46439;SDS011;32138;50.966;6.968;2023-07-16T00:42:15;5.25;;;1.63;;
46439;SDS011;32138;50.966;6.968;2023-07-16T00:43:46;3.85;;;1.80;;
46439;SDS011;32138;50.966;6.968;2023-07-16T00:45:17;4.80;;;1.95;;
46439;SDS011;32138;50.966;6.968;2023-07-16T00:46:48;7.25;;;2.33;;
46439;SDS011;32138;50.966;6.968;2023-07-16T00:48:19;4.22;;;1.88;;
46439;SDS011;32138;50.966;6.968;2023-07-16T00:49:51;3.33;;;1.88;;
46439;SDS011;32138;50.966;6.968;2023-07-16T00:51:22;3.47;;;1.30;;
46439;SDS011;32138;50.966;6.968;2023-07-16T00:52:55;3.17;;;1.77;;
46439;SDS011;32138;50.966;6.968;2023-07-16T00:54:26;5.50;;;1.80;;
46439;SDS011;32138;50.966;6.968;2023-07-16T00:55:59;3.38;;;1.80;;
46439;SDS011;32138;50.966;6.968;2023-07-16T00:57:30;2.83;;;1.60;;
46439;SDS011;32138;50.966;6.968;2023-07-16T00:59:01;4.10;;;1.73;;
46439;SDS011;32138;50.966;6.968;2023-07-16T01:00:36;2.92;;;1.48;;
46439;SDS011;32138;50.966;6.968;2023-07-16T01:02:09;4.47;;;1.50;;
46439;SDS011;32138;50.966;6.968;2023-07-16T01:03:39;5.13;;;1.48;;
46439;SDS011;32138;50.966;6.968;2023-07-16T01:05:10;5.97;;;1.70;;
46439;SDS011;32138;50.966;6.968;2023-07-16T01:06:42;3.58;;;1.77;;
46439;SDS011;32138;50.966;6.968;2023-07-16T01:08:27;3.67;;;1.60;;
46439;SDS011;32138;50.966;6.968;2023-07-16T01:10:05;6.25;;;2.47;;
46439;SDS011;32138;50.966;6.968;2023-07-16T01:11:37;3.47;;;1.98;;
46439;SDS011;32138;50.966;6.968;2023-07-16T01:13:11;6.82;;;2.42;;
46439;SDS011;32138;50.966;6.968;2023-07-16T01:14:42;5.85;;;1.70;;
46439;SDS011;32138;50.966;6.968;2023-07-16T01:16:19;4.03;;;1.60;;
46439;SDS011;32138;50.966;6.968;2023-07-16T01:17:52;5.18;;;2.05;;
46439;SDS011;32138;50.966;6.968;2023-07-16T01:19:22;4.00;;;1.60;;
46439;SDS011;32138;50.966;6.968;2023-07-16T01:20:53;4.57;;;1.88;;
46439;SDS011;32138;50.966;6.968;2023-07-16T01:22:29;6.00;;;1.92;;
46439;SDS011;32138;50.966;6.968;2023-07-16T01:26:06;3.55;;;1.73;;
46439;SDS011;32138;50.966;6.968;2023-07-16T01:27:59;3.72;;;1.98;;
46439;SDS011;32138;50.966;6.968;2023-07-16T01:29:49;5.50;;;2.33;;
46439;SDS011;32138;50.966;6.968;2023-07-16T01:31:24;5.85;;;2.13;;
46439;SDS011;32138;50.966;6.968;2023-07-16T01:32:55;4.72;;;2.10;;
46439;SDS011;32138;50.966;6.968;2023-07-16T01:34:28;3.85;;;1.90;;
46439;SDS011;32138;50.966;6.968;2023-07-16T01:36:03;8.40;;;2.10;;
46439;SDS011;32138;50.966;6.968;2023-07-16T01:37:34;4.63;;;2.13;;
46439;SDS011;32138;50.966;6.968;2023-07-16T01:39:05;9.23;;;2.80;;
46439;SDS011;32138;50.966;6.968;2023-07-16T01:40:36;5.40;;;1.83;;
46439;SDS011;32138;50.966;6.968;2023-07-16T01:42:07;5.68;;;2.20;;
46439;SDS011;32138;50.966;6.968;2023-07-16T01:43:37;5.85;;;2.00;;
46439;SDS011;32138;50.966;6.968;2023-07-16T01:45:08;10.38;;;2.53;;
46439;SDS011;32138;50.966;6.968;2023-07-16T01:46:39;6.13;;;2.13;;
46439;SDS011;32138;50.966;6.968;2023-07-16T01:48:22;5.85;;;2.00;;
46439;SDS011;32138;50.966;6.968;2023-07-16T01:50:02;4.70;;;1.48;;
46439;SDS011;32138;50.966;6.968;2023-07-16T01:51:33;3.97;;;1.67;;
46439;SDS011;32138;50.966;6.968;2023-07-16T01:53:04;4.22;;;2.10;;
46439;SDS011;32138;50.966;6.968;2023-07-16T01:54:35;4.25;;;1.60;;
46439;SDS011;32138;50.966;6.968;2023-07-16T01:56:06;4.82;;;2.22;;
46439;SDS011;32138;50.966;6.968;2023-07-16T01:57:37;5.75;;;1.98;;
46439;SDS011;32138;50.966;6.968;2023-07-16T01:59:08;3.60;;;1.80;;
46439;SDS011;32138;50.966;6.968;2023-07-16T02:00:39;3.90;;;1.83;;
46439;SDS011;32138;50.966;6.968;2023-07-16T02:02:10;5.28;;;1.58;;
46439;SDS011;32138;50.966;6.968;2023-07-16T02:03:41;6.85;;;2.30;;
46439;SDS011;32138;50.966;6.968;2023-07-16T02:05:12;6.68;;;1.92;;
46439;SDS011;32138;50.966;6.968;2023-07-16T02:06:42;4.35;;;1.45;;
46439;SDS011;32138;50.966;6.968;2023-07-16T02:08:13;3.80;;;1.65;;
46439;SDS011;32138;50.966;6.968;2023-07-16T02:09:44;3.75;;;1.75;;
46439;SDS011;32138;50.966;6.968;2023-07-16T02:11:15;5.38;;;1.75;;
46439;SDS011;32138;50.966;6.968;2023-07-16T02:12:45;6.05;;;1.88;;
46439;SDS011;32138;50.966;6.968;2023-07-16T02:14:16;5.55;;;1.98;;
46439;SDS011;32138;50.966;6.968;2023-07-16T02:15:47;12.57;;;2.60;;
46439;SDS011;32138;50.966;6.968;2023-07-16T02:17:18;4.88;;;2.15;;
46439;SDS011;32138;50.966;6.968;2023-07-16T02:18:49;3.60;;;1.80;;
46439;SDS011;32138;50.966;6.968;2023-07-16T02:20:20;6.65;;;1.85;;
46439;SDS011;32138;50.966;6.968;2023-07-16T02:21:50;7.07;;;2.45;;
46439;SDS011;32138;50.966;6.968;2023-07-16T02:23:21;6.93;;;1.98;;
46439;SDS011;32138;50.966;6.968;2023-07-16T02:24:52;5.65;;;1.73;;
46439;SDS011;32138;50.966;6.968;2023-07-16T02:26:23;4.30;;;1.73;;
46439;SDS011;32138;50.966;6.968;2023-07-16T02:27:53;7.60;;;2.17;;
46439;SDS011;32138;50.966;6.968;2023-07-16T02:29:24;3.72;;;1.83;;
46439;SDS011;32138;50.966;6.968;2023-07-16T02:30:55;3.10;;;1.55;;
46439;SDS011;32138;50.966;6.968;2023-07-16T02:32:26;6.25;;;2.00;;
46439;SDS011;32138;50.966;6.968;2023-07-16T02:33:56;5.65;;;1.88;;
46439;SDS011;32138;50.966;6.968;2023-07-16T02:35:27;4.07;;;2.13;;
46439;SDS011;32138;50.966;6.968;2023-07-16T02:36:59;7.50;;;2.55;;
46439;SDS011;32138;50.966;6.968;2023-07-16T02:38:29;7.03;;;1.88;;
46439;SDS011;32138;50.966;6.968;2023-07-16T02:40:00;3.35;;;1.83;;
46439;SDS011;32138;50.966;6.968;2023-07-16T02:41:32;3.47;;;1.50;;
46439;SDS011;32138;50.966;6.968;2023-07-16T02:43:02;5.63;;;1.90;;
46439;SDS011;32138;50.966;6.968;2023-07-16T02:44:33;6.80;;;2.28;;
46439;SDS011;32138;50.966;6.968;2023-07-16T02:46:08;5.07;;;2.53;;
46439;SDS011;32138;50.966;6.968;2023-07-16T02:47:39;5.90;;;2.10;;
46439;SDS011;32138;50.966;6.968;2023-07-16T02:49:09;3.20;;;1.50;;
46439;SDS011;32138;50.966;6.968;2023-07-16T02:50:40;5.28;;;1.70;;
46439;SDS011;32138;50.966;6.968;2023-07-16T02:52:11;7.57;;;1.60;;
46439;SDS011;32138;50.966;6.968;2023-07-16T02:53:41;3.50;;;1.67;;
46439;SDS011;32138;50.966;6.968;2023-07-16T02:55:12;4.88;;;1.65;;
46439;SDS011;32138;50.966;6.968;2023-07-16T02:56:43;4.78;;;1.73;;
46439;SDS011;32138;50.966;6.968;2023-07-16T02:58:14;4.57;;;1.70;;
46439;SDS011;32138;50.966;6.968;2023-07-16T02:59:44;4.63;;;1.85;;
46439;SDS011;32138;50.966;6.968;2023-07-16T03:01:15;9.23;;;2.47;;
46439;SDS011;32138;50.966;6.968;2023-07-16T03:02:46;5.57;;;2.58;;
46439;SDS011;32138;50.966;6.968;2023-07-16T03:04:17;3.42;;;1.50;;
46439;SDS011;32138;50.966;6.968;2023-07-16T03:05:47;6.13;;;2.40;;
46439;SDS011;32138;50.966;6.968;2023-07-16T03:07:18;8.07;;;1.88;;
46439;SDS011;32138;50.966;6.968;2023-07-16T03:08:49;4.65;;;1.75;;
46439;SDS011;32138;50.966;6.968;2023-07-16T03:10:20;6.10;;;1.75;;
46439;SDS011;32138;50.966;6.968;2023-07-16T03:11:53;5.65;;;2.03;;
46439;SDS011;32138;50.966;6.968;2023-07-16T03:13:23;5.38;;;1.95;;
46439;SDS011;32138;50.966;6.968;2023-07-16T03:14:54;7.35;;;2.08;;
46439;SDS011;32138;50.966;6.968;2023-07-16T03:16:25;5.40;;;1.98;;
46439;SDS011;32138;50.966;6.968;2023-07-16T03:17:56;7.13;;;2.60;;
46439;SDS011;32138;50.966;6.968;2023-07-16T03:19:26;6.55;;;1.98;;
46439;SDS011;32138;50.966;6.968;2023-07-16T03:20:57;6.22;;;2.00;;
46439;SDS011;32138;50.966;6.968;2023-07-16T03:22:29;6.25;;;2.00;;
46439;SDS011;32138;50.966;6.968;2023-07-16T03:24:00;5.57;;;1.75;;
46439;SDS011;32138;50.966;6.968;2023-07-16T03:25:31;6.00;;;2.28;;
46439;SDS011;32138;50.966;6.968;2023-07-16T03:27:01;3.90;;;1.83;;
46439;SDS011;32138;50.966;6.968;2023-07-16T03:28:33;6.65;;;2.63;;
46439;SDS011;32138;50.966;6.968;2023-07-16T03:30:04;6.90;;;2.30;;
46439;SDS011;32138;50.966;6.968;2023-07-16T03:31:37;6.65;;;2.10;;
46439;SDS011;32138;50.966;6.968;2023-07-16T03:33:08;3.58;;;1.77;;
46439;SDS011;32138;50.966;6.968;2023-07-16T03:34:38;4.43;;;1.92;;
46439;SDS011;32138;50.966;6.968;2023-07-16T03:36:09;5.50;;;1.98;;
46439;SDS011;32138;50.966;6.968;2023-07-16T03:37:40;3.63;;;1.83;;
46439;SDS011;32138;50.966;6.968;2023-07-16T03:39:11;5.68;;;1.88;;
46439;SDS011;32138;50.966;6.968;2023-07-16T03:40:42;3.63;;;1.95;;
46439;SDS011;32138;50.966;6.968;2023-07-16T03:42:17;5.10;;;2.38;;
46439;SDS011;32138;50.966;6.968;2023-07-16T03:43:48;6.15;;;2.60;;
46439;SDS011;32138;50.966;6.968;2023-07-16T03:45:19;5.20;;;1.95;;
46439;SDS011;32138;50.966;6.968;2023-07-16T03:46:50;6.32;;;1.92;;
46439;SDS011;32138;50.966;6.968;2023-07-16T03:48:21;5.25;;;1.90;;
46439;SDS011;32138;50.966;6.968;2023-07-16T03:49:51;8.25;;;1.55;;
46439;SDS011;32138;50.966;6.968;2023-07-16T03:51:22;4.53;;;1.85;;
46439;SDS011;32138;50.966;6.968;2023-07-16T03:52:53;3.70;;;1.92;;
46439;SDS011;32138;50.966;6.968;2023-07-16T03:54:23;7.20;;;1.73;;
46439;SDS011;32138;50.966;6.968;2023-07-16T03:55:54;4.55;;;1.85;;
46439;SDS011;32138;50.966;6.968;2023-07-16T03:57:26;4.85;;;1.73;;
46439;SDS011;32138;50.966;6.968;2023-07-16T03:59:00;6.97;;;2.30;;
46439;SDS011;32138;50.966;6.968;2023-07-16T04:00:30;8.02;;;2.85;;
46439;SDS011;32138;50.966;6.968;2023-07-16T04:02:02;8.73;;;2.35;;
46439;SDS011;32138;50.966;6.968;2023-07-16T04:03:32;4.60;;;2.15;;
46439;SDS011;32138;50.966;6.968;2023-07-16T04:05:03;4.70;;;1.95;;
46439;SDS011;32138;50.966;6.968;2023-07-16T04:06:34;5.25;;;2.25;;
46439;SDS011;32138;50.966;6.968;2023-07-16T04:08:07;3.53;;;2.00;;
46439;SDS011;32138;50.966;6.968;2023-07-16T04:09:38;6.78;;;2.17;;
46439;SDS011;32138;50.966;6.968;2023-07-16T04:11:09;5.70;;;2.53;;
46439;SDS011;32138;50.966;6.968;2023-07-16T04:12:40;4.45;;;2.13;;
46439;SDS011;32138;50.966;6.968;2023-07-16T04:14:12;6.57;;;2.53;;
46439;SDS011;32138;50.966;6.968;2023-07-16T04:15:43;7.70;;;2.42;;
46439;SDS011;32138;50.966;6.968;2023-07-16T04:17:14;5.57;;;2.00;;
46439;SDS011;32138;50.966;6.968;2023-07-16T04:18:44;7.13;;;2.22;;
46439;SDS011;32138;50.966;6.968;2023-07-16T04:20:15;5.20;;;2.10;;
46439;SDS011;32138;50.966;6.968;2023-07-16T04:21:46;5.43;;;2.08;;
46439;SDS011;32138;50.966;6.968;2023-07-16T04:23:17;6.47;;;2.67;;
46439;SDS011;32138;50.966;6.968;2023-07-16T04:24:48;7.70;;;2.25;;
46439;SDS011;32138;50.966;6.968;2023-07-16T04:26:18;5.57;;;1.75;;
46439;SDS011;32138;50.966;6.968;2023-07-16T04:27:49;8.57;;;2.72;;
46439;SDS011;32138;50.966;6.968;2023-07-16T04:29:20;6.53;;;2.17;;
46439;SDS011;32138;50.966;6.968;2023-07-16T04:30:51;5.10;;;2.08;;
46439;SDS011;32138;50.966;6.968;2023-07-16T04:32:22;8.75;;;2.50;;
46439;SDS011;32138;50.966;6.968;2023-07-16T04:33:53;3.40;;;1.80;;
46439;SDS011;32138;50.966;6.968;2023-07-16T04:35:23;10.68;;;2.65;;
46439;SDS011;32138;50.966;6.968;2023-07-16T04:36:54;8.05;;;1.95;;
46439;SDS011;32138;50.966;6.968;2023-07-16T04:38:25;7.88;;;2.03;;
46439;SDS011;32138;50.966;6.968;2023-07-16T04:39:56;5.10;;;2.13;;
46439;SDS011;32138;50.966;6.968;2023-07-16T04:41:27;6.43;;;2.30;;
46439;SDS011;32138;50.966;6.968;2023-07-16T04:42:58;6.10;;;2.28;;
46439;SDS011;32138;50.966;6.968;2023-07-16T04:44:28;6.53;;;2.47;;
46439;SDS011;32138;50.966;6.968;2023-07-16T04:45:59;6.93;;;2.35;;
46439;SDS011;32138;50.966;6.968;2023-07-16T04:47:30;7.35;;;2.28;;
46439;SDS011;32138;50.966;6.968;2023-07-16T04:49:03;4.72;;;2.50;;
46439;SDS011;32138;50.966;6.968;2023-07-16T04:50:34;6.97;;;2.20;;
46439;SDS011;32138;50.966;6.968;2023-07-16T04:52:05;5.50;;;2.20;;
46439;SDS011;32138;50.966;6.968;2023-07-16T04:53:36;4.40;;;2.25;;
46439;SDS011;32138;50.966;6.968;2023-07-16T04:55:07;6.93;;;1.92;;
46439;SDS011;32138;50.966;6.968;2023-07-16T04:56:38;6.68;;;2.75;;
46439;SDS011;32138;50.966;6.968;2023-07-16T04:58:11;9.55;;;2.60;;
46439;SDS011;32138;50.966;6.968;2023-07-16T04:59:42;8.88;;;2.83;;
46439;SDS011;32138;50.966;6.968;2023-07-16T05:01:13;8.85;;;2.58;;
46439;SDS011;32138;50.966;6.968;2023-07-16T05:02:44;9.52;;;3.08;;
46439;SDS011;32138;50.966;6.968;2023-07-16T05:04:15;7.47;;;2.28;;
46439;SDS011;32138;50.966;6.968;2023-07-16T05:05:45;7.47;;;3.22;;
46439;SDS011;32138;50.966;6.968;2023-07-16T05:07:16;7.70;;;2.15;;
46439;SDS011;32138;50.966;6.968;2023-07-16T05:08:47;4.53;;;2.88;;
46439;SDS011;32138;50.966;6.968;2023-07-16T05:10:18;9.65;;;2.80;;
46439;SDS011;32138;50.966;6.968;2023-07-16T05:11:48;8.02;;;2.58;;
46439;SDS011;32138;50.966;6.968;2023-07-16T05:13:19;8.88;;;2.85;;
46439;SDS011;32138;50.966;6.968;2023-07-16T05:14:50;6.13;;;2.58;;
46439;SDS011;32138;50.966;6.968;2023-07-16T05:16:21;10.40;;;3.13;;
46439;SDS011;32138;50.966;6.968;2023-07-16T05:17:52;12.05;;;3.25;;
46439;SDS011;32138;50.966;6.968;2023-07-16T05:19:23;7.22;;;2.42;;
46439;SDS011;32138;50.966;6.968;2023-07-16T05:20:54;11.48;;;2.97;;
46439;SDS011;32138;50.966;6.968;2023-07-16T05:22:24;10.18;;;3.05;;
46439;SDS011;32138;50.966;6.968;2023-07-16T05:23:55;6.13;;;2.65;;
46439;SDS011;32138;50.966;6.968;2023-07-16T05:25:26;7.28;;;3.25;;
46439;SDS011;32138;50.966;6.968;2023-07-16T05:26:56;9.20;;;3.05;;
46439;SDS011;32138;50.966;6.968;2023-07-16T05:28:27;9.13;;;2.90;;
46439;SDS011;32138;50.966;6.968;2023-07-16T05:29:58;11.82;;;3.40;;
46439;SDS011;32138;50.966;6.968;2023-07-16T05:31:29;7.32;;;2.85;;
46439;SDS011;32138;50.966;6.968;2023-07-16T05:33:00;10.85;;;3.80;;
46439;SDS011;32138;50.966;6.968;2023-07-16T05:34:30;6.47;;;2.53;;
46439;SDS011;32138;50.966;6.968;2023-07-16T05:36:01;5.75;;;2.70;;
46439;SDS011;32138;50.966;6.968;2023-07-16T05:37:32;8.52;;;3.25;;
46439;SDS011;32138;50.966;6.968;2023-07-16T05:39:03;8.85;;;3.60;;
46439;SDS011;32138;50.966;6.968;2023-07-16T05:40:34;9.35;;;2.85;;
46439;SDS011;32138;50.966;6.968;2023-07-16T05:42:04;6.53;;;3.08;;
46439;SDS011;32138;50.966;6.968;2023-07-16T05:43:35;8.18;;;3.28;;
46439;SDS011;32138;50.966;6.968;2023-07-16T05:45:06;10.15;;;4.05;;
46439;SDS011;32138;50.966;6.968;2023-07-16T05:46:38;8.70;;;3.25;;
46439;SDS011;32138;50.966;6.968;2023-07-16T05:48:08;6.90;;;3.20;;
46439;SDS011;32138;50.966;6.968;2023-07-16T05:49:39;5.85;;;2.92;;
46439;SDS011;32138;50.966;6.968;2023-07-16T05:51:10;6.15;;;2.88;;
46439;SDS011;32138;50.966;6.968;2023-07-16T05:52:41;7.75;;;3.00;;
46439;SDS011;32138;50.966;6.968;2023-07-16T05:54:11;7.93;;;3.28;;
46439;SDS011;32138;50.966;6.968;2023-07-16T05:55:42;6.70;;;3.22;;
46439;SDS011;32138;50.966;6.968;2023-07-16T05:57:13;5.22;;;3.00;;
46439;SDS011;32138;50.966;6.968;2023-07-16T05:58:44;9.43;;;4.07;;
46439;SDS011;32138;50.966;6.968;2023-07-16T06:00:14;10.88;;;3.75;;
46439;SDS011;32138;50.966;6.968;2023-07-16T06:01:45;8.75;;;2.97;;
46439;SDS011;32138;50.966;6.968;2023-07-16T06:03:16;6.35;;;3.40;;
46439;SDS011;32138;50.966;6.968;2023-07-16T06:04:48;10.27;;;4.07;;
46439;SDS011;32138;50.966;6.968;2023-07-16T06:06:19;8.07;;;3.60;;
46439;SDS011;32138;50.966;6.968;2023-07-16T06:07:50;7.75;;;3.50;;
46439;SDS011;32138;50.966;6.968;2023-07-16T06:09:21;7.68;;;3.92;;
46439;SDS011;32138;50.966;6.968;2023-07-16T06:10:51;12.82;;;4.03;;
46439;SDS011;32138;50.966;6.968;2023-07-16T06:12:22;11.68;;;4.28;;
46439;SDS011;32138;50.966;6.968;2023-07-16T06:13:53;9.13;;;3.58;;
46439;SDS011;32138;50.966;6.968;2023-07-16T06:15:25;14.32;;;5.65;;
46439;SDS011;32138;50.966;6.968;2023-07-16T06:16:55;11.73;;;4.30;;
46439;SDS011;32138;50.966;6.968;2023-07-16T06:18:26;14.90;;;4.63;;
46439;SDS011;32138;50.966;6.968;2023-07-16T06:19:57;7.63;;;4.78;;
46439;SDS011;32138;50.966;6.968;2023-07-16T06:21:28;11.88;;;4.43;;
46439;SDS011;32138;50.966;6.968;2023-07-16T06:22:58;11.27;;;4.40;;
46439;SDS011;32138;50.966;6.968;2023-07-16T06:24:29;8.13;;;4.47;;
46439;SDS011;32138;50.966;6.968;2023-07-16T06:26:00;14.65;;;4.85;;
46439;SDS011;32138;50.966;6.968;2023-07-16T06:27:31;12.35;;;5.13;;
46439;SDS011;32138;50.966;6.968;2023-07-16T06:29:01;10.20;;;4.80;;
46439;SDS011;32138;50.966;6.968;2023-07-16T06:30:32;11.60;;;4.50;;
46439;SDS011;32138;50.966;6.968;2023-07-16T06:32:03;15.23;;;4.80;;
46439;SDS011;32138;50.966;6.968;2023-07-16T06:33:35;10.25;;;5.25;;
46439;SDS011;32138;50.966;6.968;2023-07-16T06:35:05;10.10;;;5.43;;
46439;SDS011;32138;50.966;6.968;2023-07-16T06:36:38;9.82;;;4.80;;
46439;SDS011;32138;50.966;6.968;2023-07-16T06:38:15;10.13;;;4.43;;
46439;SDS011;32138;50.966;6.968;2023-07-16T06:39:46;10.63;;;4.10;;
46439;SDS011;32138;50.966;6.968;2023-07-16T06:41:17;9.15;;;4.93;;
46439;SDS011;32138;50.966;6.968;2023-07-16T06:42:48;7.70;;;4.15;;
46439;SDS011;32138;50.966;6.968;2023-07-16T06:44:19;7.43;;;4.03;;
46439;SDS011;32138;50.966;6.968;2023-07-16T06:45:50;9.63;;;5.07;;
46439;SDS011;32138;50.966;6.968;2023-07-16T06:47:21;9.65;;;4.35;;
46439;SDS011;32138;50.966;6.968;2023-07-16T06:48:52;11.05;;;4.93;;
46439;SDS011;32138;50.966;6.968;2023-07-16T06:50:22;10.05;;;4.80;;
46439;SDS011;32138;50.966;6.968;2023-07-16T06:51:53;14.80;;;5.03;;
46439;SDS011;32138;50.966;6.968;2023-07-16T06:53:24;11.90;;;4.00;;
46439;SDS011;32138;50.966;6.968;2023-07-16T06:54:55;7.20;;;4.05;;
46439;SDS011;32138;50.966;6.968;2023-07-16T06:56:25;9.20;;;4.88;;
46439;SDS011;32138;50.966;6.968;2023-07-16T06:57:56;7.97;;;4.40;;
46439;SDS011;32138;50.966;6.968;2023-07-16T06:59:27;7.53;;;4.28;;
46439;SDS011;32138;50.966;6.968;2023-07-16T07:00:58;6.82;;;4.47;;
46439;SDS011;32138;50.966;6.968;2023-07-16T07:02:29;9.48;;;4.68;;
46439;SDS011;32138;50.966;6.968;2023-07-16T07:04:00;9.07;;;4.18;;
46439;SDS011;32138;50.966;6.968;2023-07-16T07:05:30;8.15;;;4.97;;
46439;SDS011;32138;50.966;6.968;2023-07-16T07:07:01;14.98;;;5.07;;
46439;SDS011;32138;50.966;6.968;2023-07-16T07:08:32;7.53;;;4.22;;
46439;SDS011;32138;50.966;6.968;2023-07-16T07:10:03;8.00;;;4.43;;
46439;SDS011;32138;50.966;6.968;2023-07-16T07:11:34;9.23;;;4.28;;
46439;SDS011;32138;50.966;6.968;2023-07-16T07:13:05;9.18;;;4.10;;
46439;SDS011;32138;50.966;6.968;2023-07-16T07:14:35;8.45;;;4.25;;
46439;SDS011;32138;50.966;6.968;2023-07-16T07:16:06;8.85;;;4.05;;
46439;SDS011;32138;50.966;6.968;2023-07-16T07:17:37;10.13;;;4.68;;
46439;SDS011;32138;50.966;6.968;2023-07-16T07:19:09;8.07;;;4.38;;
46439;SDS011;32138;50.966;6.968;2023-07-16T07:20:40;10.65;;;4.80;;
46439;SDS011;32138;50.966;6.968;2023-07-16T07:22:11;8.80;;;4.65;;
46439;SDS011;32138;50.966;6.968;2023-07-16T07:23:41;9.77;;;4.55;;
46439;SDS011;32138;50.966;6.968;2023-07-16T07:25:12;8.10;;;4.80;;
46439;SDS011;32138;50.966;6.968;2023-07-16T07:26:43;8.63;;;4.50;;
46439;SDS011;32138;50.966;6.968;2023-07-16T07:28:14;10.50;;;4.80;;
46439;SDS011;32138;50.966;6.968;2023-07-16T07:29:45;9.15;;;4.60;;
46439;SDS011;32138;50.966;6.968;2023-07-16T07:31:16;9.25;;;4.35;;
46439;SDS011;32138;50.966;6.968;2023-07-16T07:32:47;9.07;;;4.90;;
46439;SDS011;32138;50.966;6.968;2023-07-16T07:34:18;9.07;;;4.70;;
46439;SDS011;32138;50.966;6.968;2023-07-16T07:35:49;13.10;;;4.80;;
46439;SDS011;32138;50.966;6.968;2023-07-16T07:37:25;8.23;;;4.43;;
46439;SDS011;32138;50.966;6.968;2023-07-16T07:38:55;8.73;;;4.43;;
46439;SDS011;32138;50.966;6.968;2023-07-16T07:40:26;10.23;;;5.43;;
46439;SDS011;32138;50.966;6.968;2023-07-16T07:41:57;11.77;;;4.88;;
46439;SDS011;32138;50.966;6.968;2023-07-16T07:43:28;10.27;;;5.00;;
46439;SDS011;32138;50.966;6.968;2023-07-16T07:44:58;11.38;;;4.90;;
46439;SDS011;32138;50.966;6.968;2023-07-16T07:46:29;9.50;;;4.65;;
46439;SDS011;32138;50.966;6.968;2023-07-16T07:48:00;9.60;;;4.45;;
46439;SDS011;32138;50.966;6.968;2023-07-16T07:49:30;6.68;;;4.38;;
46439;SDS011;32138;50.966;6.968;2023-07-16T07:51:01;9.88;;;5.18;;
46439;SDS011;32138;50.966;6.968;2023-07-16T07:52:32;11.30;;;4.85;;
46439;SDS011;32138;50.966;6.968;2023-07-16T07:54:03;8.55;;;4.07;;
46439;SDS011;32138;50.966;6.968;2023-07-16T07:55:34;9.68;;;4.32;;
46439;SDS011;32138;50.966;6.968;2023-07-16T07:57:07;8.23;;;4.70;;
46439;SDS011;32138;50.966;6.968;2023-07-16T07:58:38;8.88;;;4.75;;
46439;SDS011;32138;50.966;6.968;2023-07-16T08:00:10;7.50;;;4.10;;
46439;SDS011;32138;50.966;6.968;2023-07-16T08:01:41;8.10;;;4.07;;
46439;SDS011;32138;50.966;6.968;2023-07-16T08:03:12;10.02;;;4.85;;
46439;SDS011;32138;50.966;6.968;2023-07-16T08:04:43;6.82;;;4.53;;
46439;SDS011;32138;50.966;6.968;2023-07-16T08:06:15;7.10;;;4.53;;
46439;SDS011;32138;50.966;6.968;2023-07-16T08:07:46;8.75;;;4.70;;
46439;SDS011;32138;50.966;6.968;2023-07-16T08:09:17;6.18;;;4.03;;
46439;SDS011;32138;50.966;6.968;2023-07-16T08:10:48;9.35;;;4.95;;
46439;SDS011;32138;50.966;6.968;2023-07-16T08:12:19;9.30;;;4.68;;
46439;SDS011;32138;50.966;6.968;2023-07-16T08:13:49;10.80;;;4.60;;
46439;SDS011;32138;50.966;6.968;2023-07-16T08:15:20;6.70;;;4.32;;
46439;SDS011;32138;50.966;6.968;2023-07-16T08:16:51;6.63;;;4.47;;
46439;SDS011;32138;50.966;6.968;2023-07-16T08:18:22;6.75;;;4.32;;
46439;SDS011;32138;50.966;6.968;2023-07-16T08:19:52;8.95;;;4.80;;
46439;SDS011;32138;50.966;6.968;2023-07-16T08:21:23;9.20;;;4.78;;
46439;SDS011;32138;50.966;6.968;2023-07-16T08:22:54;10.45;;;5.13;;
46439;SDS011;32138;50.966;6.968;2023-07-16T08:24:25;7.18;;;4.90;;
46439;SDS011;32138;50.966;6.968;2023-07-16T08:25:56;9.35;;;4.68;;
46439;SDS011;32138;50.966;6.968;2023-07-16T08:27:27;9.88;;;4.80;;
46439;SDS011;32138;50.966;6.968;2023-07-16T08:28:58;11.57;;;4.95;;
46439;SDS011;32138;50.966;6.968;2023-07-16T08:30:31;6.38;;;4.70;;
46439;SDS011;32138;50.966;6.968;2023-07-16T08:32:03;7.90;;;4.60;;
46439;SDS011;32138;50.966;6.968;2023-07-16T08:33:34;7.07;;;4.25;;
46439;SDS011;32138;50.966;6.968;2023-07-16T08:35:05;9.30;;;4.50;;
46439;SDS011;32138;50.966;6.968;2023-07-16T08:36:36;9.23;;;4.95;;
46439;SDS011;32138;50.966;6.968;2023-07-16T08:38:10;8.98;;;4.25;;
46439;SDS011;32138;50.966;6.968;2023-07-16T08:39:41;7.97;;;4.90;;
46439;SDS011;32138;50.966;6.968;2023-07-16T08:41:12;9.27;;;4.63;;
46439;SDS011;32138;50.966;6.968;2023-07-16T08:42:45;8.75;;;4.75;;
46439;SDS011;32138;50.966;6.968;2023-07-16T08:44:16;10.27;;;4.72;;
46439;SDS011;32138;50.966;6.968;2023-07-16T08:45:48;7.15;;;5.07;;
46439;SDS011;32138;50.966;6.968;2023-07-16T08:47:19;7.90;;;4.70;;
46439;SDS011;32138;50.966;6.968;2023-07-16T08:48:50;7.70;;;4.47;;
46439;SDS011;32138;50.966;6.968;2023-07-16T08:50:22;7.45;;;5.25;;
46439;SDS011;32138;50.966;6.968;2023-07-16T08:51:54;10.25;;;4.68;;
46439;SDS011;32138;50.966;6.968;2023-07-16T08:53:25;9.48;;;5.07;;
46439;SDS011;32138;50.966;6.968;2023-07-16T08:54:56;9.68;;;4.75;;
46439;SDS011;32138;50.966;6.968;2023-07-16T08:56:27;7.53;;;4.10;;
46439;SDS011;32138;50.966;6.968;2023-07-16T08:57:58;7.05;;;4.00;;
46439;SDS011;32138;50.966;6.968;2023-07-16T08:59:29;5.90;;;3.97;;
46439;SDS011;32138;50.966;6.968;2023-07-16T09:01:00;5.90;;;4.13;;
46439;SDS011;32138;50.966;6.968;2023-07-16T09:02:31;5.72;;;3.85;;
46439;SDS011;32138;50.966;6.968;2023-07-16T09:04:02;11.57;;;4.57;;
46439;SDS011;32138;50.966;6.968;2023-07-16T09:05:34;9.48;;;4.32;;
46439;SDS011;32138;50.966;6.968;2023-07-16T09:07:06;6.85;;;4.57;;
46439;SDS011;32138;50.966;6.968;2023-07-16T09:08:37;6.32;;;4.18;;
46439;SDS011;32138;50.966;6.968;2023-07-16T09:10:08;7.95;;;4.30;;
46439;SDS011;32138;50.966;6.968;2023-07-16T09:11:46;9.82;;;4.90;;